Time;durP1;ratioP1;P1;durP2;ratioP2;P2;SDS_P1;SDS_P2;PMS_P1;PMS_P2;Temp;Humidity;BMP_temperature;BMP_pressure;BME280_temperature;BME280_humidity;BME280_pressure;Samples;Min_cycle;Max_cycle;Signal;HPM_P1;HPM_P2
2023/08/12 00:01:09;;;;;;;5.73;5.23;;;28.20;52.30;;;;;;4988663;28;20336;-45
2023/08/12 00:03:35;;;;;;;5.30;4.80;;;28.20;52.20;;;;;;4986058;28;20194;-48
2023/08/12 00:06:01;;;;;;;5.20;4.67;;;28.20;52.30;;;;;;4986053;28;20589;-49
2023/08/12 00:08:27;;;;;;;4.97;4.60;;;28.20;52.40;;;;;;4988561;28;20217;-47
2023/08/12 00:10:53;;;;;;;5.27;4.50;;;28.10;52.40;;;;;;4985665;28;20969;-49
2023/08/12 00:13:18;;;;;;;5.27;4.87;;;28.10;52.50;;;;;;4986579;28;20191;-50
2023/08/12 00:15:44;;;;;;;8.00;4.90;;;28.10;52.40;;;;;;4989581;28;20202;-47
2023/08/12 00:18:10;;;;;;;5.60;5.13;;;28.10;52.60;;;;;;4989194;28;20278;-47
2023/08/12 00:20:37;;;;;;;5.23;4.80;;;28.00;52.60;;;;;;4989292;28;20542;-46
2023/08/12 00:23:04;;;;;;;5.43;4.93;;;28.00;52.80;;;;;;4986265;28;20214;-46
2023/08/12 00:25:29;;;;;;;5.03;4.60;;;27.90;52.90;;;;;;4988274;28;20445;-46
2023/08/12 00:27:55;;;;;;;5.33;4.93;;;27.90;53.00;;;;;;4988074;28;20496;-45
2023/08/12 00:30:21;;;;;;;5.57;5.10;;;27.80;53.20;;;;;;4981418;28;20202;-49
2023/08/12 00:32:46;;;;;;;5.27;4.77;;;27.80;53.40;;;;;;4982196;28;20546;-49
2023/08/12 00:35:12;;;;;;;5.03;4.63;;;27.70;53.60;;;;;;4991188;28;20650;-46
2023/08/12 00:37:38;;;;;;;5.00;4.60;;;27.70;53.60;;;;;;4988591;28;20195;-49
2023/08/12 00:40:04;;;;;;;6.00;5.50;;;27.60;53.80;;;;;;4985218;28;20566;-48
2023/08/12 00:42:30;;;;;;;5.33;4.77;;;27.50;54.20;;;;;;4982656;28;20191;-45
2023/08/12 00:44:55;;;;;;;5.33;4.57;;;27.50;54.20;;;;;;4987899;28;20445;-46
2023/08/12 00:47:21;;;;;;;6.50;5.40;;;27.40;54.40;;;;;;4984926;28;20238;-48
2023/08/12 00:49:47;;;;;;;6.67;5.17;;;27.30;54.70;;;;;;4982079;28;20195;-55
2023/08/12 00:52:14;;;;;;;5.13;4.73;;;27.10;55.20;;;;;;4988347;28;20451;-49
2023/08/12 00:54:40;;;;;;;5.43;4.80;;;27.00;55.70;;;;;;4989914;28;20446;-48
2023/08/12 00:57:06;;;;;;;5.67;5.07;;;26.80;56.40;;;;;;4990634;28;20449;-45
2023/08/12 00:59:34;;;;;;;4.97;4.67;;;26.80;56.40;;;;;;4990292;28;20891;-48
2023/08/12 01:02:00;;;;;;;5.90;5.30;;;26.80;56.10;;;;;;4983639;28;20473;-47
2023/08/12 01:04:27;;;;;;;5.50;4.97;;;26.70;56.50;;;;;;4987182;28;20449;-46
2023/08/12 01:06:52;;;;;;;5.60;5.20;;;26.80;56.30;;;;;;4990070;28;20493;-50
2023/08/12 01:09:18;;;;;;;4.50;4.20;;;26.90;55.90;;;;;;4990978;28;20521;-50
2023/08/12 01:11:44;;;;;;;6.23;5.30;;;26.90;55.80;;;;;;4983784;28;20190;-46
2023/08/12 01:14:22;;;;;;;6.33;4.87;;;26.90;55.90;;;;;;4989642;28;20485;-49
2023/08/12 01:16:53;;;;;;;5.17;4.67;;;27.00;55.70;;;;;;4991362;28;20301;-50
2023/08/12 01:19:33;;;;;;;5.33;4.83;;;26.60;56.90;;;;;;4991927;28;20449;-50
2023/08/12 01:22:01;;;;;;;6.27;5.67;;;26.40;57.80;;;;;;4989802;28;20438;-48
2023/08/12 01:24:27;;;;;;;5.07;4.67;;;26.50;56.90;;;;;;4999530;28;20442;-50
2023/08/12 01:26:52;;;;;;;5.33;4.93;;;26.50;56.90;;;;;;4992930;28;20555;-46
2023/08/12 01:29:19;;;;;;;5.67;5.13;;;26.60;56.60;;;;;;4991706;28;20202;-49
2023/08/12 01:31:56;;;;;;;4.80;4.20;;;26.50;57.20;;;;;;4991582;28;20195;-50
2023/08/12 01:34:46;;;;;;;6.83;5.70;;;26.50;57.10;;;;;;4992706;28;20445;-50
2023/08/12 01:37:19;;;;;;;5.30;4.80;;;26.60;57.00;;;;;;4992575;28;20454;-50
2023/08/12 01:39:46;;;;;;;5.10;4.70;;;26.60;56.80;;;;;;4987699;28;20505;-46
2023/08/12 01:42:12;;;;;;;5.87;5.37;;;26.50;57.30;;;;;;4984814;28;20450;-46
2023/08/12 01:44:38;;;;;;;6.43;4.87;;;26.50;57.40;;;;;;4988723;28;20985;-47
2023/08/12 01:47:04;;;;;;;5.30;4.80;;;26.60;57.00;;;;;;4989652;28;20477;-46
2023/08/12 01:49:29;;;;;;;5.10;4.60;;;26.60;57.00;;;;;;4991732;28;20197;-49
2023/08/12 01:51:55;;;;;;;4.80;4.40;;;26.50;57.00;;;;;;4992619;28;20202;-47
2023/08/12 01:54:21;;;;;;;8.70;4.93;;;26.60;56.80;;;;;;4983915;28;20247;-45
2023/08/12 01:56:46;;;;;;;5.20;4.70;;;26.70;56.50;;;;;;4999498;28;20825;-46
2023/08/12 01:59:12;;;;;;;4.80;4.40;;;26.60;56.50;;;;;;4984787;28;20198;-50
2023/08/12 02:01:37;;;;;;;6.40;5.80;;;26.60;56.60;;;;;;4983130;28;20250;-49
2023/08/12 02:04:03;;;;;;;5.60;5.07;;;26.70;56.40;;;;;;4988785;28;20199;-48
2023/08/12 02:06:28;;;;;;;5.10;4.60;;;26.60;56.50;;;;;;4991552;28;20269;-50
2023/08/12 02:08:54;;;;;;;5.50;5.00;;;26.60;56.40;;;;;;4986542;28;20211;-46
2023/08/12 02:11:20;;;;;;;6.10;5.47;;;26.60;56.50;;;;;;4988353;28;20186;-48
2023/08/12 02:13:45;;;;;;;4.53;4.13;;;26.70;56.20;;;;;;4989383;28;21616;-48
2023/08/12 02:16:11;;;;;;;4.47;4.13;;;26.80;56.00;;;;;;4987193;28;20199;-49
2023/08/12 02:18:36;;;;;;;4.90;4.50;;;26.80;55.70;;;;;;4993457;28;20685;-50
2023/08/12 02:21:02;;;;;;;7.07;5.73;;;26.90;55.60;;;;;;4988191;28;20274;-46
2023/08/12 02:23:27;;;;;;;7.30;4.97;;;26.90;55.40;;;;;;4987569;28;20249;-46
2023/08/12 02:25:54;;;;;;;5.40;4.90;;;26.80;55.60;;;;;;4991121;28;20593;-49
2023/08/12 02:28:20;;;;;;;5.00;4.60;;;26.70;56.10;;;;;;4989022;28;20242;-49
2023/08/12 02:30:45;;;;;;;5.93;5.43;;;26.70;56.20;;;;;;4987363;28;20712;-46
2023/08/12 02:33:11;;;;;;;5.60;5.20;;;26.70;56.30;;;;;;4989664;28;20293;-50
2023/08/12 02:35:36;;;;;;;5.00;4.60;;;26.70;56.20;;;;;;4988729;28;20205;-47
2023/08/12 02:38:02;;;;;;;4.90;4.50;;;26.80;56.10;;;;;;5001018;28;20195;-46
2023/08/12 02:40:28;;;;;;;5.10;4.67;;;26.80;55.90;;;;;;4991873;28;20194;-46
2023/08/12 02:42:53;;;;;;;5.10;4.70;;;26.80;55.90;;;;;;4988898;28;20190;-46
2023/08/12 02:45:19;;;;;;;6.03;5.30;;;26.70;56.10;;;;;;4986320;28;20253;-47
2023/08/12 02:47:44;;;;;;;6.13;4.87;;;26.70;56.30;;;;;;4985636;28;20379;-49
2023/08/12 02:50:10;;;;;;;5.90;5.00;;;26.50;56.60;;;;;;4985282;28;20202;-49
2023/08/12 02:52:35;;;;;;;5.40;4.90;;;26.40;56.80;;;;;;4985870;28;20194;-48
2023/08/12 02:55:01;;;;;;;7.73;4.30;;;26.50;56.90;;;;;;4989447;28;20213;-48
2023/08/12 02:57:27;;;;;;;5.20;4.70;;;26.50;56.90;;;;;;4987466;28;20628;-45
2023/08/12 02:59:52;;;;;;;6.07;5.47;;;26.50;56.70;;;;;;4989302;28;20696;-46
2023/08/12 03:02:18;;;;;;;5.40;5.00;;;26.30;57.40;;;;;;4991521;28;20198;-47
2023/08/12 03:04:43;;;;;;;5.13;4.73;;;26.20;57.50;;;;;;4989938;28;20228;-50
2023/08/12 03:07:09;;;;;;;8.43;4.40;;;26.30;57.30;;;;;;4988420;28;20230;-46
2023/08/12 03:09:35;;;;;;;5.60;5.17;;;26.20;57.30;;;;;;4992719;28;20206;-49
2023/08/12 03:12:02;;;;;;;5.27;4.87;;;26.20;57.30;;;;;;4991455;28;20229;-47
2023/08/12 03:14:29;;;;;;;5.20;4.80;;;26.10;57.60;;;;;;4990606;28;20190;-48
2023/08/12 03:16:55;;;;;;;5.33;4.93;;;26.30;57.30;;;;;;4988815;28;20473;-45
2023/08/12 03:19:20;;;;;;;5.70;4.73;;;26.40;56.90;;;;;;4988897;28;20481;-46
2023/08/12 03:21:46;;;;;;;5.60;5.17;;;26.40;56.80;;;;;;4989868;28;20239;-48
2023/08/12 03:24:12;;;;;;;5.70;4.90;;;26.50;56.60;;;;;;4988327;28;20505;-48
2023/08/12 03:26:37;;;;;;;6.70;4.90;;;26.50;56.60;;;;;;4988092;28;20243;-44
2023/08/12 03:29:03;;;;;;;4.60;4.20;;;26.50;56.40;;;;;;4985037;28;20245;-49
2023/08/12 03:31:29;;;;;;;5.83;5.17;;;26.60;56.30;;;;;;4983295;28;20198;-47
2023/08/12 03:33:54;;;;;;;5.30;4.90;;;26.50;56.40;;;;;;4981400;28;20222;-45
2023/08/12 03:36:20;;;;;;;5.13;4.63;;;26.60;56.40;;;;;;4981364;28;20575;-47
2023/08/12 03:38:45;;;;;;;7.17;4.70;;;26.60;56.10;;;;;;4982457;28;20194;-45
2023/08/12 03:41:11;;;;;;;7.60;5.10;;;26.70;56.10;;;;;;4987922;28;20690;-46
2023/08/12 03:43:37;;;;;;;5.30;4.90;;;26.80;56.10;;;;;;4988554;28;20222;-48
2023/08/12 03:46:03;;;;;;;7.30;4.90;;;26.80;55.80;;;;;;4979258;28;20186;-50
2023/08/12 03:48:28;;;;;;;4.77;4.37;;;26.80;55.70;;;;;;4985975;28;21059;-48
2023/08/12 03:50:54;;;;;;;4.80;4.40;;;26.90;55.60;;;;;;4983109;28;20650;-45
2023/08/12 03:53:19;;;;;;;5.57;5.07;;;26.90;55.60;;;;;;4980685;28;20191;-51
2023/08/12 03:55:45;;;;;;;5.17;4.30;;;26.90;55.40;;;;;;4983911;28;20202;-49
2023/08/12 03:58:10;;;;;;;5.50;5.00;;;27.00;55.30;;;;;;4981637;28;20253;-49
2023/08/12 04:00:42;;;;;;;6.87;4.83;;;26.90;55.50;;;;;;4984629;28;20658;-50
2023/08/12 04:03:08;;;;;;;5.77;5.00;;;26.80;55.70;;;;;;4988030;28;20602;-50
2023/08/12 04:05:34;;;;;;;4.83;4.33;;;26.80;55.70;;;;;;4982328;28;20526;-49
2023/08/12 04:07:59;;;;;;;4.93;4.53;;;26.80;55.80;;;;;;4983846;28;20572;-47
2023/08/12 04:10:25;;;;;;;5.37;4.80;;;26.80;55.90;;;;;;4984958;28;20195;-50
2023/08/12 04:12:51;;;;;;;6.73;5.33;;;26.80;55.80;;;;;;4982080;28;20199;-45
2023/08/12 04:15:16;;;;;;;5.10;4.60;;;26.80;55.90;;;;;;4988805;28;20615;-48
2023/08/12 04:17:42;;;;;;;6.60;4.50;;;26.90;55.60;;;;;;4983545;28;20204;-49
2023/08/12 04:20:08;;;;;;;5.23;4.83;;;26.90;55.50;;;;;;4982409;28;20273;-50
2023/08/12 04:22:34;;;;;;;5.80;5.20;;;27.00;55.40;;;;;;4982082;28;20662;-48
2023/08/12 04:25:00;;;;;;;6.03;5.23;;;27.00;55.30;;;;;;4986093;28;20453;-50
2023/08/12 04:27:25;;;;;;;5.17;4.77;;;27.10;55.30;;;;;;4985222;28;20874;-47
2023/08/12 04:29:51;;;;;;;5.87;5.30;;;27.10;55.20;;;;;;4981727;28;20533;-45
2023/08/12 04:32:16;;;;;;;5.53;5.13;;;27.10;55.20;;;;;;4985588;28;20205;-44
2023/08/12 04:34:42;;;;;;;4.57;4.17;;;27.10;55.30;;;;;;4982645;28;20190;-47
2023/08/12 04:37:07;;;;;;;6.53;4.77;;;27.00;55.10;;;;;;4986610;28;20187;-46
2023/08/12 04:39:33;;;;;;;6.03;4.73;;;27.10;55.20;;;;;;4982357;28;20193;-48
2023/08/12 04:41:59;;;;;;;6.20;5.70;;;27.10;55.30;;;;;;4981065;28;20194;-48
2023/08/12 04:44:24;;;;;;;5.57;5.07;;;27.00;55.70;;;;;;4994068;28;20213;-45
2023/08/12 04:46:50;;;;;;;6.13;5.43;;;27.00;56.00;;;;;;4984835;28;20199;-45
2023/08/12 04:49:15;;;;;;;7.17;5.67;;;26.90;56.00;;;;;;4989922;28;20194;-49
2023/08/12 04:51:41;;;;;;;5.93;5.30;;;27.00;55.90;;;;;;4988275;28;20563;-47
2023/08/12 04:54:07;;;;;;;6.00;5.47;;;27.00;55.90;;;;;;4989537;28;20270;-46
2023/08/12 04:56:33;;;;;;;5.80;5.30;;;27.00;55.80;;;;;;4996059;28;20217;-46
2023/08/12 04:58:59;;;;;;;6.53;5.93;;;27.00;55.70;;;;;;4994345;28;20446;-45
2023/08/12 05:01:24;;;;;;;5.60;5.20;;;27.10;55.70;;;;;;4990983;28;20210;-49
2023/08/12 05:03:50;;;;;;;5.40;4.90;;;27.10;55.60;;;;;;4989337;28;20273;-46
2023/08/12 05:06:15;;;;;;;8.27;4.90;;;27.20;55.40;;;;;;4984755;28;20218;-50
2023/08/12 05:08:41;;;;;;;5.30;4.80;;;27.20;55.50;;;;;;4989206;28;20234;-46
2023/08/12 05:11:07;;;;;;;5.70;5.13;;;27.10;55.80;;;;;;4984139;28;20550;-46
2023/08/12 05:13:33;;;;;;;6.00;5.50;;;27.10;55.60;;;;;;4993474;28;20198;-48
2023/08/12 05:15:58;;;;;;;5.30;4.90;;;27.20;55.90;;;;;;4988779;28;20298;-48
2023/08/12 05:18:24;;;;;;;7.30;5.10;;;27.10;56.20;;;;;;4992779;28;20537;-47
2023/08/12 05:20:52;;;;;;;7.10;5.87;;;27.10;56.40;;;;;;4992839;28;20245;-45
2023/08/12 05:23:17;;;;;;;6.23;5.60;;;27.10;56.60;;;;;;4993970;28;20203;-49
2023/08/12 05:25:43;;;;;;;6.47;5.80;;;27.10;56.70;;;;;;4986463;28;20505;-46
2023/08/12 05:28:08;;;;;;;5.67;5.07;;;27.00;56.90;;;;;;4984419;28;20238;-47
2023/08/12 05:30:35;;;;;;;6.40;5.50;;;26.90;57.20;;;;;;4990728;28;20190;-48
2023/08/12 05:33:00;;;;;;;7.03;6.43;;;27.00;57.20;;;;;;4982148;28;20221;-48
2023/08/12 05:35:26;;;;;;;6.93;5.60;;;27.00;57.50;;;;;;4984147;28;20477;-50
2023/08/12 05:37:51;;;;;;;5.90;5.07;;;27.10;57.80;;;;;;4983695;28;20275;-46
2023/08/12 05:40:18;;;;;;;7.90;5.30;;;27.10;57.60;;;;;;4991775;28;20737;-47
2023/08/12 05:42:44;;;;;;;6.30;5.70;;;26.60;59.10;;;;;;4983064;28;20446;-48
2023/08/12 05:45:10;;;;;;;9.60;5.27;;;26.50;59.40;;;;;;4983716;28;20285;-51
2023/08/12 05:47:36;;;;;;;6.23;5.73;;;26.10;59.90;;;;;;4989065;28;20237;-46
2023/08/12 05:50:01;;;;;;;6.80;5.73;;;25.70;61.50;;;;;;4993302;28;20438;-46
2023/08/12 05:52:27;;;;;;;6.70;6.10;;;25.70;62.00;;;;;;4992803;28;20237;-47
2023/08/12 05:54:53;;;;;;;6.10;5.57;;;26.00;61.20;;;;;;4995754;28;20205;-47
2023/08/12 05:57:18;;;;;;;7.23;5.37;;;26.20;60.60;;;;;;4995575;28;20269;-46
2023/08/12 05:59:44;;;;;;;30.07;7.87;;;26.40;59.90;;;;;;4994142;28;20190;-45
2023/08/12 06:02:09;;;;;;;6.77;5.40;;;26.50;59.80;;;;;;4989490;28;20277;-46
2023/08/12 06:04:35;;;;;;;5.50;5.00;;;26.50;59.70;;;;;;4989992;28;20362;-50
2023/08/12 06:07:00;;;;;;;6.10;5.70;;;26.60;59.70;;;;;;4987362;28;20256;-49
2023/08/12 06:09:26;;;;;;;5.50;5.10;;;26.60;59.70;;;;;;4988220;28;20201;-45
2023/08/12 06:11:51;;;;;;;5.57;5.07;;;26.60;59.50;;;;;;4989025;28;20735;-46
2023/08/12 06:14:17;;;;;;;5.63;4.60;;;26.30;61.50;;;;;;4987122;28;20651;-46
2023/08/12 06:16:43;;;;;;;6.18;5.50;;;26.20;61.80;;;;;;4993254;28;20699;-45
2023/08/12 06:19:08;;;;;;;5.87;5.37;;;26.30;61.00;;;;;;4987444;28;20191;-46
2023/08/12 06:21:34;;;;;;;6.07;5.57;;;25.80;62.40;;;;;;4992017;28;20226;-44
2023/08/12 06:24:06;;;;;;;6.03;5.53;;;25.40;63.90;;;;;;4988961;28;20201;-47
2023/08/12 06:26:31;;;;;;;6.40;5.90;;;25.50;63.80;;;;;;4989471;28;20299;-46
2023/08/12 06:28:57;;;;;;;5.20;4.70;;;25.90;63.20;;;;;;4992341;28;20918;-45
2023/08/12 06:31:23;;;;;;;5.20;4.70;;;26.10;62.20;;;;;;4993923;28;20211;-46
2023/08/12 06:33:48;;;;;;;6.33;4.90;;;26.40;61.10;;;;;;4985101;28;20282;-45
2023/08/12 06:36:14;;;;;;;6.33;5.50;;;26.50;60.20;;;;;;4987214;28;20214;-46
2023/08/12 06:38:39;;;;;;;6.10;4.87;;;26.60;60.60;;;;;;4997685;28;20203;-45
2023/08/12 06:41:05;;;;;;;5.57;4.73;;;26.50;60.00;;;;;;4987579;28;20716;-45
2023/08/12 06:43:30;;;;;;;6.30;5.70;;;26.30;60.50;;;;;;4988274;28;20198;-49
2023/08/12 06:45:56;;;;;;;6.30;5.80;;;26.30;61.50;;;;;;4985282;28;20199;-45
2023/08/12 06:48:21;;;;;;;9.50;5.73;;;26.30;61.70;;;;;;4992116;28;20222;-45
2023/08/12 06:50:56;;;;;;;7.03;6.33;;;26.40;61.80;;;;;;4993668;28;20206;-46
2023/08/12 06:53:22;;;;;;;5.50;5.10;;;26.40;61.90;;;;;;4994028;28;20189;-47
2023/08/12 06:55:47;;;;;;;6.60;6.07;;;26.30;62.50;;;;;;4996283;28;20552;-45
2023/08/12 06:58:14;;;;;;;6.70;6.20;;;26.10;62.40;;;;;;4992562;28;20521;-45
2023/08/12 07:00:40;;;;;;;7.43;6.83;;;26.10;63.00;;;;;;4990740;28;20206;-45
2023/08/12 07:03:06;;;;;;;5.70;5.23;;;26.30;62.50;;;;;;4992569;28;20461;-45
2023/08/12 07:05:31;;;;;;;5.93;5.43;;;26.40;62.20;;;;;;4992869;28;20236;-44
2023/08/12 07:07:57;;;;;;;5.57;5.07;;;26.50;61.10;;;;;;4992915;28;20226;-45
2023/08/12 07:10:22;;;;;;;5.60;5.10;;;26.60;61.00;;;;;;4992300;28;20190;-45
2023/08/12 07:12:48;;;;;;;5.57;5.07;;;26.50;62.30;;;;;;4993411;28;20288;-47
2023/08/12 07:15:13;;;;;;;6.73;5.23;;;26.70;62.30;;;;;;4989525;28;20183;-46
2023/08/12 07:17:39;;;;;;;6.00;5.40;;;27.00;61.70;;;;;;4987535;28;20253;-45
2023/08/12 07:20:06;;;;;;;6.20;5.60;;;27.20;60.60;;;;;;4993385;28;20207;-45
2023/08/12 07:22:31;;;;;;;5.90;5.30;;;27.30;60.20;;;;;;4995003;28;20654;-45
2023/08/12 07:24:59;;;;;;;5.70;5.30;;;27.50;59.70;;;;;;4992510;28;20434;-46
2023/08/12 07:27:25;;;;;;;5.60;5.10;;;27.70;58.80;;;;;;4988241;28;20234;-47
2023/08/12 07:29:51;;;;;;;6.57;5.67;;;27.80;57.90;;;;;;4993571;28;20422;-47
2023/08/12 07:32:17;;;;;;;5.87;5.37;;;27.90;57.90;;;;;;4993513;28;20426;-46
2023/08/12 07:34:42;;;;;;;5.70;5.20;;;27.70;58.70;;;;;;4993846;28;20654;-45
2023/08/12 07:37:08;;;;;;;5.30;4.83;;;27.90;58.50;;;;;;4991675;28;20205;-49
2023/08/12 07:39:33;;;;;;;6.00;5.40;;;28.30;57.30;;;;;;4991777;28;20717;-45
2023/08/12 07:41:59;;;;;;;5.27;4.87;;;28.60;56.80;;;;;;4993078;28;20745;-45
2023/08/12 07:44:24;;;;;;;4.90;4.50;;;28.90;56.10;;;;;;4993164;28;20214;-45
2023/08/12 07:46:50;;;;;;;5.27;4.60;;;29.10;55.50;;;;;;4992585;28;20186;-46
2023/08/12 07:49:16;;;;;;;5.27;4.77;;;29.50;55.30;;;;;;4990645;28;20190;-45
2023/08/12 07:51:41;;;;;;;4.53;4.10;;;29.70;54.90;;;;;;4994569;28;20237;-46
2023/08/12 07:54:07;;;;;;;5.20;4.80;;;29.90;54.00;;;;;;4993045;28;20411;-45
2023/08/12 07:56:33;;;;;;;5.07;4.60;;;30.20;53.30;;;;;;4990504;28;20689;-46
2023/08/12 07:58:58;;;;;;;4.67;4.37;;;30.40;52.80;;;;;;4990135;28;20190;-45
2023/08/12 08:01:24;;;;;;;5.63;5.07;;;30.60;52.00;;;;;;4991026;28;20191;-47
2023/08/12 08:03:49;;;;;;;5.80;5.30;;;30.80;51.60;;;;;;4992613;28;20190;-47
2023/08/12 08:06:15;;;;;;;5.90;5.30;;;31.00;51.10;;;;;;4995565;28;20187;-49
2023/08/12 08:08:40;;;;;;;4.70;4.40;;;31.00;49.90;;;;;;4992982;28;20305;-49
2023/08/12 08:11:06;;;;;;;6.00;5.40;;;31.30;49.80;;;;;;4989111;28;20201;-50
2023/08/12 08:13:32;;;;;;;5.73;5.30;;;31.50;48.90;;;;;;4992481;28;20194;-45
2023/08/12 08:15:57;;;;;;;5.27;4.87;;;31.70;48.60;;;;;;4992128;28;20203;-52
2023/08/12 08:18:23;;;;;;;5.33;4.93;;;31.90;48.30;;;;;;4993066;28;20626;-51
2023/08/12 08:20:48;;;;;;;9.70;5.50;;;32.00;47.00;;;;;;4988749;28;20194;-47
2023/08/12 08:23:14;;;;;;;5.73;5.33;;;32.20;46.50;;;;;;4989635;28;20297;-45
2023/08/12 08:25:39;;;;;;;6.90;5.20;;;32.10;46.00;;;;;;4994984;28;20245;-49
2023/08/12 08:28:05;;;;;;;7.00;5.33;;;32.20;46.30;;;;;;4992395;28;20317;-45
2023/08/12 08:30:30;;;;;;;6.17;5.60;;;32.30;46.20;;;;;;4990125;28;20547;-51
2023/08/12 08:32:56;;;;;;;5.80;5.30;;;32.30;46.20;;;;;;4992726;28;20194;-51
2023/08/12 08:35:21;;;;;;;5.83;5.33;;;32.50;46.20;;;;;;4988684;28;20194;-50
2023/08/12 08:37:47;;;;;;;5.40;5.00;;;32.40;46.10;;;;;;4983129;28;20265;-48
2023/08/12 08:40:13;;;;;;;6.27;5.73;;;32.40;45.70;;;;;;4991453;28;20227;-46
2023/08/12 08:42:40;;;;;;;5.60;5.07;;;32.50;45.40;;;;;;4986841;28;20214;-46
2023/08/12 08:45:15;;;;;;;5.70;5.20;;;32.70;44.90;;;;;;4987557;28;20203;-51
2023/08/12 08:47:41;;;;;;;7.27;5.57;;;32.80;44.50;;;;;;4991794;28;20545;-46
2023/08/12 08:50:09;;;;;;;7.43;4.70;;;32.80;44.40;;;;;;4986933;28;20470;-45
2023/08/12 08:52:37;;;;;;;5.77;5.27;;;32.80;44.40;;;;;;4988502;28;20452;-47
2023/08/12 08:55:04;;;;;;;5.80;5.37;;;32.80;44.70;;;;;;4993997;28;20480;-47
2023/08/12 08:57:30;;;;;;;5.10;4.73;;;33.00;44.70;;;;;;4986347;28;20965;-49
2023/08/12 08:59:55;;;;;;;5.70;5.30;;;33.00;44.40;;;;;;4976185;28;20445;-48
2023/08/12 09:02:22;;;;;;;6.10;5.60;;;33.20;44.10;;;;;;4979077;28;20447;-48
2023/08/12 09:04:49;;;;;;;7.57;5.07;;;33.10;44.30;;;;;;4987253;28;20448;-46
2023/08/12 09:07:15;;;;;;;5.87;5.37;;;33.10;44.20;;;;;;4986778;28;20580;-47
2023/08/12 09:09:44;;;;;;;5.37;4.80;;;33.20;43.70;;;;;;4989213;28;20528;-48
2023/08/12 09:12:13;;;;;;;7.43;5.33;;;33.40;43.60;;;;;;4992114;28;20209;-45
2023/08/12 09:14:39;;;;;;;6.00;5.50;;;33.40;43.00;;;;;;4990202;28;20481;-47
2023/08/12 09:17:04;;;;;;;4.90;4.50;;;33.50;43.10;;;;;;4989261;28;20504;-44
2023/08/12 09:19:30;;;;;;;5.83;5.30;;;33.70;42.70;;;;;;4990669;28;20202;-46
2023/08/12 09:21:56;;;;;;;5.73;4.70;;;33.70;42.50;;;;;;4989065;28;20194;-48
2023/08/12 09:24:25;;;;;;;6.47;5.87;;;33.90;42.60;;;;;;4992421;28;20202;-45
2023/08/12 09:26:55;;;;;;;5.43;4.93;;;34.00;43.20;;;;;;4989739;28;20242;-45
2023/08/12 09:29:31;;;;;;;5.37;4.97;;;34.20;42.50;;;;;;4990141;28;20461;-43
2023/08/12 09:32:12;;;;;;;5.53;5.13;;;34.30;41.70;;;;;;4988178;28;20463;-44
2023/08/12 09:34:52;;;;;;;5.60;5.10;;;34.30;41.90;;;;;;4994267;28;20467;-47
2023/08/12 09:37:19;;;;;;;5.27;4.77;;;34.50;41.80;;;;;;4993901;28;20449;-44
2023/08/12 09:39:44;;;;;;;6.10;5.60;;;34.80;41.30;;;;;;4989385;28;20448;-50
2023/08/12 09:42:11;;;;;;;5.33;4.83;;;35.10;41.30;;;;;;4991728;28;20446;-47
2023/08/12 09:44:37;;;;;;;5.60;5.10;;;35.30;41.10;;;;;;4993086;28;20268;-44
2023/08/12 09:47:03;;;;;;;4.77;4.47;;;35.60;40.60;;;;;;4986305;28;20453;-50
2023/08/12 09:49:29;;;;;;;5.13;4.73;;;35.50;39.10;;;;;;4989363;28;20461;-47
2023/08/12 09:51:55;;;;;;;4.80;4.40;;;35.50;40.00;;;;;;4982819;28;20823;-45
2023/08/12 09:54:21;;;;;;;5.43;5.03;;;35.80;39.80;;;;;;4990643;28;20277;-46
2023/08/12 09:56:49;;;;;;;5.63;5.13;;;35.70;39.40;;;;;;4993482;28;20564;-46
2023/08/12 09:59:22;;;;;;;5.23;4.83;;;35.90;39.30;;;;;;4991175;28;20450;-44
2023/08/12 10:01:50;;;;;;;5.40;4.97;;;36.20;38.70;;;;;;4987120;28;20449;-44
2023/08/12 10:04:20;;;;;;;6.30;4.97;;;36.20;37.90;;;;;;4994291;28;20437;-46
2023/08/12 10:06:47;;;;;;;4.63;4.40;;;36.20;37.60;;;;;;4997679;28;20925;-48
2023/08/12 10:09:15;;;;;;;5.13;4.57;;;36.20;37.90;;;;;;4995221;28;20426;-44
2023/08/12 10:11:43;;;;;;;4.87;4.53;;;36.40;37.60;;;;;;4990011;28;20488;-46
2023/08/12 10:14:09;;;;;;;4.63;4.10;;;36.30;37.10;;;;;;4992971;28;20426;-45
2023/08/12 10:16:35;;;;;;;4.73;4.23;;;35.90;37.70;;;;;;4998884;28;20481;-49
2023/08/12 10:19:03;;;;;;;4.97;4.47;;;35.80;38.30;;;;;;4985859;28;20858;-47
2023/08/12 10:21:29;;;;;;;4.57;4.23;;;35.50;38.30;;;;;;4993654;28;20418;-46
2023/08/12 10:24:00;;;;;;;4.73;4.40;;;35.10;39.20;;;;;;4994063;28;20440;-44
2023/08/12 10:26:26;;;;;;;6.20;4.70;;;35.00;40.00;;;;;;4997013;28;20203;-48
2023/08/12 10:28:51;;;;;;;5.50;4.93;;;35.10;43.40;;;;;;4994183;28;20489;-46
2023/08/12 10:31:19;;;;;;;5.50;5.13;;;35.10;42.90;;;;;;4983363;28;20195;-44
2023/08/12 10:33:48;;;;;;;4.63;4.23;;;35.00;44.60;;;;;;4993187;28;20198;-48
2023/08/12 10:36:15;;;;;;;5.40;4.90;;;35.10;43.60;;;;;;4996561;28;20857;-50
2023/08/12 10:38:41;;;;;;;5.53;5.00;;;34.90;43.20;;;;;;4994363;28;20957;-44
2023/08/12 10:41:23;;;;;;;4.80;4.40;;;34.60;43.80;;;;;;4990731;28;20517;-46
2023/08/12 10:44:01;;;;;;;4.20;3.90;;;34.50;42.20;;;;;;4993650;28;20202;-49
2023/08/12 10:46:31;;;;;;;4.77;4.30;;;34.20;43.80;;;;;;4993027;28;20854;-47
2023/08/12 10:49:11;;;;;;;5.20;4.80;;;34.00;42.50;;;;;;4993917;28;20486;-45
2023/08/12 10:51:54;;;;;;;4.77;4.37;;;33.90;42.80;;;;;;4992057;28;20973;-46
2023/08/12 10:54:30;;;;;;;4.40;4.10;;;33.90;43.30;;;;;;4993716;28;20473;-49
2023/08/12 10:57:05;;;;;;;4.97;4.47;;;34.00;42.80;;;;;;4990212;28;20957;-44
2023/08/12 10:59:45;;;;;;;4.00;3.70;;;34.20;42.00;;;;;;4993745;28;20587;-45
2023/08/12 11:02:18;;;;;;;4.37;4.07;;;34.50;42.70;;;;;;4992417;28;20457;-44
2023/08/12 11:04:44;;;;;;;4.70;4.30;;;34.60;42.50;;;;;;4994166;28;20457;-45
2023/08/12 11:07:18;;;;;;;5.13;4.03;;;34.70;41.60;;;;;;4992465;28;20477;-44
2023/08/12 11:09:45;;;;;;;4.30;3.90;;;34.70;41.50;;;;;;4991224;28;20444;-49
2023/08/12 11:12:16;;;;;;;3.83;3.43;;;34.70;40.60;;;;;;4987440;28;20642;-46
2023/08/12 11:14:57;;;;;;;3.43;3.20;;;34.80;40.50;;;;;;4991785;28;20592;-50
2023/08/12 11:17:33;;;;;;;5.03;3.70;;;34.80;40.30;;;;;;4985203;28;20508;-45
2023/08/12 11:20:00;;;;;;;4.33;3.93;;;34.80;40.40;;;;;;4985992;28;20453;-45
2023/08/12 11:22:26;;;;;;;4.20;3.70;;;34.80;41.00;;;;;;4987118;28;20468;-46
2023/08/12 11:24:52;;;;;;;3.67;3.37;;;34.90;39.70;;;;;;4986769;28;20449;-48
2023/08/12 11:27:18;;;;;;;3.93;3.63;;;35.10;39.20;;;;;;4987705;28;20597;-48
2023/08/12 11:29:44;;;;;;;4.30;3.50;;;35.30;39.40;;;;;;4989929;28;20456;-48
2023/08/12 11:32:10;;;;;;;4.23;3.83;;;35.50;38.60;;;;;;4989438;28;20456;-47
2023/08/12 11:34:36;;;;;;;4.90;4.40;;;35.70;39.10;;;;;;4988731;28;20190;-46
2023/08/12 11:37:03;;;;;;;4.80;3.93;;;35.90;38.60;;;;;;4986883;28;20450;-45
2023/08/12 11:39:29;;;;;;;4.17;3.87;;;36.10;37.50;;;;;;4991452;28;20413;-45
2023/08/12 11:41:55;;;;;;;3.90;3.50;;;36.20;36.90;;;;;;4984785;28;20483;-49
2023/08/12 11:44:22;;;;;;;4.00;3.70;;;36.00;36.90;;;;;;4991716;28;20191;-46
2023/08/12 11:46:48;;;;;;;5.43;3.70;;;35.90;36.60;;;;;;4988647;28;20536;-46
2023/08/12 11:49:13;;;;;;;3.70;3.40;;;36.00;37.10;;;;;;4991460;28;20516;-45
2023/08/12 11:51:39;;;;;;;3.63;3.33;;;36.20;36.80;;;;;;4989337;28;20194;-44
2023/08/12 11:54:05;;;;;;;5.40;3.67;;;35.90;36.80;;;;;;4991353;28;20704;-46
2023/08/12 11:56:31;;;;;;;3.97;3.67;;;35.70;36.80;;;;;;4989049;28;20442;-45
2023/08/12 11:58:57;;;;;;;4.13;3.70;;;35.70;36.40;;;;;;4989560;28;20186;-45
2023/08/12 12:01:25;;;;;;;4.37;3.97;;;35.90;36.30;;;;;;4992948;28;20198;-46
2023/08/12 12:03:52;;;;;;;4.90;3.83;;;36.00;36.40;;;;;;4991883;28;20474;-45
2023/08/12 12:06:17;;;;;;;3.80;3.50;;;36.00;36.30;;;;;;4987828;28;20457;-44
2023/08/12 12:08:46;;;;;;;4.90;3.70;;;35.90;36.60;;;;;;4978497;28;20476;-48
2023/08/12 12:11:13;;;;;;;6.03;4.00;;;35.70;36.70;;;;;;4984782;28;20205;-46
2023/08/12 12:13:39;;;;;;;3.53;2.63;;;35.50;37.50;;;;;;4988852;28;20512;-50
2023/08/12 12:16:10;;;;;;;5.50;2.20;;;35.10;39.30;;;;;;4988246;28;20849;-44
2023/08/12 12:18:36;;;;;;;4.37;2.57;;;34.60;39.90;;;;;;4986393;28;20202;-44
2023/08/12 12:21:02;;;;;;;4.23;2.40;;;34.40;40.90;;;;;;4990815;28;20438;-47
2023/08/12 12:23:31;;;;;;;5.13;2.53;;;34.10;41.60;;;;;;4990299;28;20614;-44
2023/08/12 12:25:59;;;;;;;6.90;2.60;;;34.20;41.60;;;;;;4991353;28;20211;-48
2023/08/12 12:28:24;;;;;;;4.07;2.70;;;34.00;42.60;;;;;;4992591;28;20539;-44
2023/08/12 12:30:50;;;;;;;4.17;3.27;;;33.90;43.30;;;;;;4988879;28;20449;-45
2023/08/12 12:33:16;;;;;;;3.37;3.07;;;33.80;44.20;;;;;;4993356;28;20595;-44
2023/08/12 12:35:41;;;;;;;4.73;3.63;;;33.40;45.80;;;;;;4991535;28;20721;-44
2023/08/12 12:38:07;;;;;;;4.93;3.33;;;33.00;49.50;;;;;;4980286;28;20206;-44
2023/08/12 12:40:32;;;;;;;3.40;3.00;;;33.00;50.00;;;;;;4986869;28;20194;-44
2023/08/12 12:42:58;;;;;;;6.57;3.00;;;32.80;51.10;;;;;;4992466;28;20274;-46
2023/08/12 12:45:25;;;;;;;6.43;3.60;;;32.60;51.50;;;;;;4989659;28;20224;-45